createdAt,value
2018-10-12T00:00:53.523Z,23.67
2018-10-12T00:03:21.680Z,22.30
2018-10-12T00:05:49.854Z,20.57
2018-10-12T00:08:18.164Z,21.60
2018-10-12T00:10:46.330Z,23.13
2018-10-12T00:13:14.544Z,27.13
2018-10-12T00:15:42.716Z,22.40
2018-10-12T00:18:10.938Z,21.60
2018-10-12T00:20:39.084Z,21.70
2018-10-12T00:23:07.265Z,29.40
2018-10-12T00:25:35.510Z,19.73
2018-10-12T00:28:03.666Z,28.97
2018-10-12T00:30:31.888Z,24.10
2018-10-12T00:33:00.076Z,20.67
2018-10-12T00:35:28.306Z,24.00
2018-10-12T00:37:56.604Z,22.57
2018-10-12T00:40:24.827Z,28.50
2018-10-12T00:42:53.590Z,23.03
2018-10-12T00:45:21.824Z,24.37
2018-10-12T00:47:55.442Z,36.97
2018-10-12T00:50:23.661Z,27.13
2018-10-12T00:52:51.845Z,29.10
2018-10-12T00:55:20.154Z,19.70
2018-10-12T00:57:48.330Z,22.20
2018-10-12T01:00:16.541Z,21.40
2018-10-12T01:02:44.776Z,26.83
2018-10-12T01:05:12.981Z,20.40
2018-10-12T01:07:41.395Z,24.60
2018-10-12T01:10:09.670Z,22.23
2018-10-12T01:12:38.272Z,25.60
2018-10-12T01:15:06.917Z,22.23
2018-10-12T01:17:35.857Z,25.33
2018-10-12T01:20:04.303Z,22.93
2018-10-12T01:22:32.481Z,27.40
2018-10-12T01:25:01.861Z,24.37
2018-10-12T01:27:30.322Z,24.73
2018-10-12T01:29:58.837Z,27.73
2018-10-12T01:32:32.382Z,21.67
2018-10-12T01:35:00.553Z,22.43
2018-10-12T01:37:28.915Z,20.77
2018-10-12T01:40:03.819Z,25.67
2018-10-12T01:42:32.005Z,31.50
2018-10-12T01:45:00.167Z,22.70
2018-10-12T01:47:28.421Z,23.53
2018-10-12T01:49:56.612Z,25.57
2018-10-12T01:52:24.806Z,21.83
2018-10-12T01:54:52.973Z,26.70
2018-10-12T01:57:21.204Z,34.87
2018-10-12T01:59:49.375Z,30.00
2018-10-12T02:02:17.599Z,27.27
2018-10-12T02:04:45.865Z,25.80
2018-10-12T02:07:14.077Z,26.47
2018-10-12T02:09:42.293Z,32.30
2018-10-12T02:12:10.475Z,28.80
2018-10-12T02:14:38.648Z,25.27
2018-10-12T02:17:06.853Z,26.00
2018-10-12T02:19:35.031Z,29.53
2018-10-12T02:22:03.233Z,27.83
2018-10-12T02:24:31.495Z,24.30
2018-10-12T02:26:59.709Z,30.23
2018-10-12T02:29:27.931Z,29.67
2018-10-12T02:31:56.168Z,26.13
2018-10-12T02:34:24.379Z,33.00
2018-10-12T02:36:52.513Z,26.03
2018-10-12T02:39:20.708Z,22.40
2018-10-12T02:41:48.911Z,30.20
2018-10-12T02:44:17.099Z,28.27
2018-10-12T02:46:45.298Z,30.90
2018-10-12T02:49:13.479Z,22.93
2018-10-12T02:51:41.726Z,25.40
2018-10-12T02:54:09.893Z,23.83
2018-10-12T02:56:38.092Z,29.63
2018-10-12T02:59:06.397Z,26.47
2018-10-12T03:01:34.589Z,26.83
2018-10-12T03:04:02.850Z,29.30
2018-10-12T03:06:30.998Z,25.10
2018-10-12T03:08:59.223Z,30.03
2018-10-12T03:11:27.414Z,26.77
2018-10-12T03:13:55.664Z,29.83
2018-10-12T03:16:23.833Z,32.13
2018-10-12T03:18:52.038Z,27.30
2018-10-12T03:21:20.252Z,31.47
2018-10-12T03:23:48.426Z,25.00
2018-10-12T03:26:16.714Z,30.57
2018-10-12T03:28:44.886Z,24.37
2018-10-12T03:31:13.054Z,33.13
2018-10-12T03:33:41.298Z,30.33
2018-10-12T03:36:09.489Z,30.63
2018-10-12T03:38:37.726Z,27.83
2018-10-12T03:41:05.920Z,25.60
2018-10-12T03:43:34.112Z,29.20
2018-10-12T03:46:02.312Z,28.10
2018-10-12T03:48:30.512Z,30.63
2018-10-12T03:50:58.685Z,24.47
2018-10-12T03:53:26.932Z,33.17
2018-10-12T03:55:55.111Z,36.20
2018-10-12T03:58:23.309Z,29.90
2018-10-12T04:00:51.540Z,31.67
2018-10-12T04:03:19.718Z,29.87
2018-10-12T04:05:48.028Z,25.90
2018-10-12T04:08:16.234Z,33.07
2018-10-12T04:10:44.436Z,35.90
2018-10-12T04:13:12.602Z,29.53
2018-10-12T04:15:40.850Z,28.27
2018-10-12T04:18:09.078Z,26.90
2018-10-12T04:20:37.358Z,28.93
2018-10-12T04:23:05.645Z,30.93
2018-10-12T04:25:33.804Z,36.33
2018-10-12T04:28:02.010Z,28.60
2018-10-12T04:30:30.164Z,32.43
2018-10-12T04:32:58.378Z,32.50
2018-10-12T04:35:26.320Z,30.43
2018-10-12T04:37:54.517Z,34.47
2018-10-12T04:41:28.019Z,33.73
2018-10-12T04:43:58.643Z,34.20
2018-10-12T04:46:31.072Z,30.43
2018-10-12T04:48:59.464Z,31.57
2018-10-12T04:51:29.582Z,31.03
2018-10-12T04:53:57.802Z,29.73
2018-10-12T04:56:26.374Z,35.03
2018-10-12T04:58:54.606Z,40.67
2018-10-12T05:01:22.896Z,34.67
2018-10-12T05:03:51.069Z,38.73
2018-10-12T05:06:19.232Z,32.83
2018-10-12T05:08:47.463Z,33.33
2018-10-12T05:11:15.644Z,40.03
2018-10-12T05:13:50.448Z,37.00
2018-10-12T05:16:18.598Z,30.63
2018-10-12T05:18:46.881Z,39.00
2018-10-12T05:21:15.092Z,36.57
2018-10-12T05:23:43.270Z,36.23
2018-10-12T05:26:11.497Z,35.00
2018-10-12T05:28:39.842Z,37.97
2018-10-12T05:31:08.364Z,36.60
2018-10-12T05:33:36.590Z,37.60
2018-10-12T05:36:04.886Z,34.93
2018-10-12T05:38:33.414Z,38.00
2018-10-12T05:41:01.880Z,37.67
2018-10-12T05:43:30.328Z,36.63
2018-10-12T05:45:58.516Z,45.37
2018-10-12T05:48:38.262Z,51.20
2018-10-12T05:51:07.115Z,38.13
2018-10-12T05:53:35.562Z,35.03
2018-10-12T05:56:04.041Z,33.77
2018-10-12T05:58:32.501Z,33.70
2018-10-12T06:01:00.683Z,38.63
2018-10-12T06:03:28.905Z,46.67
2018-10-12T06:05:57.083Z,38.10
2018-10-12T06:08:25.220Z,32.03
2018-10-12T06:10:53.461Z,39.10
2018-10-12T06:13:21.665Z,32.67
2018-10-12T06:15:49.906Z,38.37
2018-10-12T06:18:18.122Z,40.83
2018-10-12T06:20:52.981Z,36.67
2018-10-12T06:23:21.179Z,32.77
2018-10-12T06:25:49.335Z,39.67
2018-10-12T06:28:17.587Z,37.73
2018-10-12T06:30:45.735Z,35.53
2018-10-12T06:33:13.981Z,37.97
2018-10-12T06:35:42.169Z,42.80
2018-10-12T06:38:10.492Z,35.63
2018-10-12T06:40:38.781Z,32.80
2018-10-12T06:43:07.073Z,36.50
2018-10-12T06:45:35.298Z,32.93
2018-10-12T06:48:03.537Z,33.00
2018-10-12T06:50:31.737Z,40.10
2018-10-12T06:52:59.919Z,42.00
2018-10-12T06:55:28.123Z,34.70
2018-10-12T06:57:56.335Z,39.33
2018-10-12T07:00:24.773Z,34.90
2018-10-12T07:02:52.947Z,31.97
2018-10-12T07:05:21.377Z,35.40
2018-10-12T07:07:49.565Z,40.57
2018-10-12T07:10:17.806Z,37.90
2018-10-12T07:12:45.967Z,38.33
2018-10-12T07:15:14.187Z,36.53
2018-10-12T07:17:42.426Z,40.63
2018-10-12T07:20:10.606Z,35.03
2018-10-12T07:22:39.076Z,36.70
2018-10-12T07:25:07.218Z,30.60
2018-10-12T07:27:35.463Z,42.97
2018-10-12T07:30:03.698Z,46.40
2018-10-12T07:32:31.902Z,34.87
2018-10-12T07:35:00.101Z,31.17
2018-10-12T07:37:28.340Z,39.07
2018-10-12T07:39:56.596Z,33.87
2018-10-12T07:42:24.835Z,37.60
2018-10-12T07:44:53.061Z,26.40
2018-10-12T07:47:21.351Z,36.13
2018-10-12T07:49:49.507Z,36.40
2018-10-12T07:52:17.680Z,32.67
2018-10-12T07:54:45.896Z,32.50
2018-10-12T07:57:15.058Z,37.33
2018-10-12T07:59:44.276Z,29.97
2018-10-12T08:02:13.134Z,26.13
2018-10-12T08:04:42.219Z,34.50
2018-10-12T08:07:11.599Z,34.03
2018-10-12T08:09:39.895Z,26.37
2018-10-12T08:12:08.021Z,28.80
2018-10-12T08:14:36.248Z,28.90
2018-10-12T08:17:04.458Z,25.87
2018-10-12T08:19:32.671Z,27.30
2018-10-12T08:22:00.976Z,26.20
2018-10-12T08:24:29.290Z,27.57
2018-10-12T08:26:57.510Z,24.60
2018-10-12T08:29:26.923Z,27.47
2018-10-12T08:31:55.126Z,26.53
2018-10-12T08:34:23.477Z,32.10
2018-10-12T08:36:51.762Z,30.00
2018-10-12T08:39:20.003Z,34.80
2018-10-12T08:41:48.367Z,29.80
2018-10-12T08:44:16.702Z,24.97
2018-10-12T08:46:44.947Z,28.80
2018-10-12T08:49:13.255Z,32.53
2018-10-12T08:51:41.500Z,25.17
2018-10-12T08:54:09.936Z,29.97
2018-10-12T08:56:38.590Z,24.20
2018-10-12T08:59:06.858Z,21.33
2018-10-12T09:01:35.095Z,18.00
2018-10-12T09:04:03.465Z,28.20
2018-10-12T09:06:31.941Z,21.40
2018-10-12T09:09:01.000Z,22.57
2018-10-12T09:11:29.240Z,24.93
2018-10-12T09:13:57.406Z,23.13
2018-10-12T09:16:25.706Z,22.63
2018-10-12T09:18:53.899Z,28.93
2018-10-12T09:21:22.152Z,30.33
2018-10-12T09:23:50.351Z,20.50
2018-10-12T09:26:18.604Z,31.53
2018-10-12T09:28:46.835Z,20.37
2018-10-12T09:31:15.261Z,22.93
2018-10-12T09:33:43.523Z,35.53
2018-10-12T09:36:11.843Z,24.30
2018-10-12T09:38:40.089Z,22.47
2018-10-12T09:41:08.061Z,25.00
2018-10-12T09:43:36.229Z,24.07
2018-10-12T09:46:04.624Z,27.27
2018-10-12T09:48:32.854Z,21.70
2018-10-12T09:51:01.101Z,24.00
2018-10-12T09:53:29.265Z,25.90
2018-10-12T09:55:57.340Z,18.97
2018-10-12T09:58:25.455Z,21.57
2018-10-12T10:00:59.133Z,23.43
2018-10-12T10:03:32.923Z,20.77
2018-10-12T10:06:01.364Z,20.27
2018-10-12T10:08:29.661Z,22.33
2018-10-12T10:10:57.789Z,20.70
2018-10-12T10:13:25.972Z,23.47
2018-10-12T10:15:54.214Z,28.60
2018-10-12T10:18:22.773Z,29.10
2018-10-12T10:20:50.727Z,18.63
2018-10-12T10:23:18.936Z,23.47
2018-10-12T10:25:47.182Z,41.03
2018-10-12T10:28:15.431Z,22.33
2018-10-12T10:30:43.773Z,24.83
2018-10-12T10:33:11.954Z,18.33
2018-10-12T10:35:40.153Z,21.27
2018-10-12T10:38:08.629Z,24.53
2018-10-12T10:40:36.722Z,17.77
2018-10-12T10:43:05.163Z,17.97
2018-10-12T10:45:33.457Z,14.50
2018-10-12T10:48:01.708Z,19.00
2018-10-12T10:50:29.961Z,20.13
2018-10-12T10:52:58.241Z,21.23
2018-10-12T10:55:26.503Z,15.37
2018-10-12T10:57:54.725Z,22.27
2018-10-12T11:00:22.975Z,15.63
2018-10-12T11:02:51.187Z,18.07
2018-10-12T11:05:19.441Z,15.90
2018-10-12T11:07:47.670Z,30.30
2018-10-12T11:10:15.894Z,29.30
2018-10-12T11:12:44.135Z,21.50
2018-10-12T11:15:12.388Z,22.93
2018-10-12T11:17:40.666Z,21.53
2018-10-12T11:20:08.874Z,23.93
2018-10-12T11:22:37.048Z,15.47
2018-10-12T11:25:05.304Z,14.57
2018-10-12T11:27:33.482Z,16.80
2018-10-12T11:30:02.632Z,22.23
2018-10-12T11:32:30.840Z,17.30
2018-10-12T11:34:59.020Z,16.87
2018-10-12T11:37:27.264Z,17.90
2018-10-12T11:39:55.520Z,17.23
2018-10-12T11:42:28.668Z,22.67
2018-10-12T11:44:56.953Z,23.53
2018-10-12T11:47:25.140Z,18.23
2018-10-12T11:49:53.390Z,18.80
2018-10-12T11:52:21.564Z,20.70
2018-10-12T11:54:49.861Z,14.80
2018-10-12T11:57:18.099Z,15.00
2018-10-12T11:59:46.313Z,12.33
2018-10-12T12:02:14.552Z,14.00
2018-10-12T12:04:42.827Z,15.77
2018-10-12T12:07:11.080Z,18.13
2018-10-12T12:09:39.252Z,13.77
2018-10-12T12:12:07.582Z,15.57
2018-10-12T12:14:35.802Z,16.27
2018-10-12T12:17:04.040Z,13.83
2018-10-12T12:19:32.880Z,19.83
2018-10-12T12:22:01.066Z,17.87
2018-10-12T12:24:29.336Z,15.03
2018-10-12T12:26:57.532Z,16.93
2018-10-12T12:29:25.792Z,19.13
2018-10-12T12:31:54.002Z,17.57
2018-10-12T12:34:22.239Z,16.00
2018-10-12T12:36:50.417Z,16.10
2018-10-12T12:39:18.589Z,16.73
2018-10-12T12:41:46.883Z,15.53
2018-10-12T12:44:15.085Z,13.10
2018-10-12T12:46:43.320Z,16.33
2018-10-12T12:49:11.987Z,17.40
2018-10-12T12:51:40.081Z,14.80
2018-10-12T12:54:08.904Z,12.50
2018-10-12T12:56:37.454Z,15.03
2018-10-12T12:59:05.913Z,18.70
2018-10-12T13:01:34.365Z,17.17
2018-10-12T13:04:03.297Z,15.10
2018-10-12T13:06:31.857Z,16.00
2018-10-12T13:09:00.400Z,22.50
2018-10-12T13:11:28.643Z,16.30
2018-10-12T13:13:56.806Z,17.17
2018-10-12T13:16:24.969Z,14.73
2018-10-12T13:19:00.389Z,21.57
2018-10-12T13:21:29.547Z,13.17
2018-10-12T13:23:57.857Z,14.00
2018-10-12T13:33:43.298Z,20.77
2018-10-12T13:36:16.639Z,12.40
2018-10-12T13:38:51.843Z,12.33
2018-10-12T13:41:26.739Z,15.13
2018-10-12T13:43:59.486Z,12.80
2018-10-12T13:46:32.197Z,17.30
2018-10-12T13:49:02.536Z,15.80
2018-10-12T13:51:36.599Z,18.00
2018-10-12T13:54:05.408Z,16.10
2018-10-12T13:56:35.607Z,15.73
2018-10-12T13:59:10.062Z,13.20
2018-10-12T14:01:39.063Z,14.73
2018-10-12T14:04:11.704Z,14.80
2018-10-12T14:06:40.475Z,17.97
2018-10-12T14:09:09.109Z,18.93
2018-10-12T14:11:43.325Z,16.87
2018-10-12T14:14:20.417Z,17.80
2018-10-12T14:16:49.071Z,15.00
2018-10-12T14:19:19.624Z,19.23
2018-10-12T14:21:55.069Z,19.43
2018-10-12T14:24:23.868Z,16.23
2018-10-12T14:26:57.228Z,17.60
2018-10-12T14:29:32.749Z,14.77
2018-10-12T14:32:07.132Z,19.47
2018-10-12T14:34:38.786Z,15.53
2018-10-12T14:37:12.315Z,14.90
2018-10-12T14:39:42.165Z,14.37
2018-10-12T14:42:13.606Z,12.20
2018-10-12T14:44:45.061Z,12.90
2018-10-12T14:47:19.522Z,17.47
2018-10-12T14:49:56.438Z,15.77
2018-10-12T14:52:26.206Z,14.63
2018-10-12T14:54:57.509Z,18.80
2018-10-12T14:57:28.441Z,19.13
2018-10-12T15:00:02.043Z,26.83
2018-10-12T15:02:30.227Z,24.67
2018-10-12T15:05:02.135Z,19.90
2018-10-12T15:07:31.509Z,14.60
2018-10-12T15:10:01.059Z,17.80
2018-10-12T15:12:30.289Z,17.63
2018-10-12T15:15:23.245Z,20.23
2018-10-12T15:17:53.310Z,20.90
2018-10-12T15:20:24.264Z,26.73
2018-10-12T15:22:57.620Z,17.80
2018-10-12T15:25:27.522Z,20.30
2018-10-12T15:27:58.100Z,21.00
2018-10-12T15:30:27.380Z,16.13
2018-10-12T15:32:57.818Z,22.23
2018-10-12T15:35:28.210Z,27.00
2018-10-12T15:37:59.933Z,24.97
2018-10-12T15:40:33.480Z,21.10
2018-10-12T15:43:06.737Z,15.33
2018-10-12T15:45:38.649Z,25.07
2018-10-12T15:48:07.764Z,23.33
2018-10-12T15:50:37.350Z,22.53
2018-10-12T15:53:07.888Z,29.63
2018-10-12T15:55:39.554Z,22.30
2018-10-12T15:58:11.389Z,30.30
2018-10-12T16:00:40.668Z,53.10
2018-10-12T16:03:10.765Z,35.77
2018-10-12T16:05:40.756Z,38.13
2018-10-12T16:08:09.844Z,20.60
2018-10-12T16:10:38.388Z,14.60
2018-10-12T16:13:06.590Z,16.77
2018-10-12T16:15:34.897Z,16.63
2018-10-12T16:18:03.162Z,21.00
2018-10-12T16:20:31.395Z,22.30
2018-10-12T16:23:00.333Z,23.67
2018-10-12T16:26:06.402Z,17.67
2018-10-12T16:28:34.844Z,17.73
2018-10-12T16:31:03.006Z,20.07
2018-10-12T16:33:31.192Z,20.77
2018-10-12T16:36:00.113Z,19.03
2018-10-12T16:38:28.187Z,26.10
2018-10-12T16:40:56.204Z,24.87
2018-10-12T16:43:24.461Z,23.23
2018-10-12T16:45:53.229Z,19.93
2018-10-12T16:48:21.257Z,23.33
2018-10-12T16:50:49.335Z,23.90
2018-10-12T16:53:17.275Z,24.20
2018-10-12T16:55:45.267Z,23.93
2018-10-12T16:58:14.476Z,22.43
2018-10-12T17:00:43.123Z,27.40
2018-10-12T17:03:17.136Z,24.57
2018-10-12T17:05:46.364Z,25.50
2018-10-12T17:08:14.678Z,26.27
2018-10-12T17:10:42.993Z,20.67
2018-10-12T17:13:11.257Z,21.40
2018-10-12T17:15:58.376Z,25.20
2018-10-12T17:18:26.880Z,22.80
2018-10-12T17:20:55.162Z,23.77
2018-10-12T17:23:23.675Z,23.47
2018-10-12T17:25:51.857Z,26.80
2018-10-12T17:28:19.946Z,29.20
2018-10-12T17:30:48.298Z,34.33
2018-10-12T17:33:16.536Z,31.10
2018-10-12T17:35:45.961Z,26.67
2018-10-12T17:38:14.284Z,24.37
2018-10-12T17:40:42.618Z,29.03
2018-10-12T17:43:10.976Z,21.80
2018-10-12T17:45:39.242Z,23.93
2018-10-12T17:48:07.524Z,22.87
2018-10-12T17:50:35.745Z,26.23
2018-10-12T17:53:04.077Z,27.30
2018-10-12T17:55:32.491Z,25.97
2018-10-12T17:58:01.363Z,26.20
2018-10-12T18:00:29.883Z,25.43
2018-10-12T18:02:58.054Z,25.37
2018-10-12T18:05:26.603Z,31.17
2018-10-12T18:07:55.115Z,25.60
2018-10-12T18:10:23.463Z,27.20
2018-10-12T18:12:51.769Z,32.77
2018-10-12T18:15:21.929Z,40.00
2018-10-12T18:17:50.267Z,40.00
2018-10-12T18:20:18.694Z,29.80
2018-10-12T18:22:47.050Z,29.40
2018-10-12T18:25:15.362Z,25.87
2018-10-12T18:27:43.795Z,29.40
2018-10-12T18:30:12.215Z,26.80
2018-10-12T18:32:40.870Z,27.70
2018-10-12T18:35:09.349Z,28.80
2018-10-12T18:37:37.688Z,26.73
2018-10-12T18:40:05.898Z,27.63
2018-10-12T18:42:34.108Z,25.60
2018-10-12T18:45:02.287Z,30.27
2018-10-12T18:47:30.559Z,35.47
2018-10-12T18:49:58.958Z,31.83
2018-10-12T18:52:27.308Z,33.17
2018-10-12T18:54:55.572Z,28.67
2018-10-12T18:57:23.876Z,31.30
2018-10-12T18:59:52.398Z,30.50
2018-10-12T19:02:20.843Z,30.90
2018-10-12T19:04:49.643Z,31.77
2018-10-12T19:07:18.061Z,37.50
2018-10-12T19:09:46.430Z,31.17
2018-10-12T19:12:14.912Z,30.30
2018-10-12T19:14:47.122Z,28.97
2018-10-12T19:17:15.512Z,32.60
2018-10-12T19:19:44.071Z,30.63
2018-10-12T19:22:12.310Z,30.23
2018-10-12T19:24:47.168Z,31.70
2018-10-12T19:27:15.632Z,33.37
2018-10-12T19:29:44.688Z,40.07
2018-10-12T19:32:13.071Z,40.03
2018-10-12T19:34:41.812Z,41.03
2018-10-12T19:37:10.130Z,36.30
2018-10-12T19:39:38.434Z,35.83
2018-10-12T19:42:06.750Z,31.70
2018-10-12T19:44:35.010Z,34.00
2018-10-12T19:47:03.359Z,30.87
2018-10-12T19:49:31.655Z,34.60
2018-10-12T19:52:00.089Z,28.00
2018-10-12T19:54:28.402Z,29.73
2018-10-12T19:56:56.797Z,33.27
2018-10-12T19:59:25.064Z,26.67
2018-10-12T20:01:53.402Z,30.07
2018-10-12T20:04:21.694Z,29.00
2018-10-12T20:06:50.166Z,30.47
2018-10-12T20:09:18.692Z,33.57
2018-10-12T20:11:47.046Z,30.63
2018-10-12T20:14:15.289Z,36.43
2018-10-12T20:16:43.610Z,28.07
2018-10-12T20:19:11.913Z,32.97
2018-10-12T20:21:40.187Z,31.50
2018-10-12T20:24:09.152Z,28.30
2018-10-12T20:26:37.410Z,28.03
2018-10-12T20:29:05.834Z,32.07
2018-10-12T20:31:34.340Z,26.60
2018-10-12T20:34:02.798Z,26.20
2018-10-12T20:36:31.459Z,27.60
2018-10-12T20:38:59.863Z,26.50
2018-10-12T20:41:28.313Z,28.97
2018-10-12T20:43:57.008Z,27.53
2018-10-12T20:46:25.316Z,36.60
2018-10-12T20:48:54.055Z,31.77
2018-10-12T20:51:22.402Z,28.00
2018-10-12T20:53:50.656Z,27.90
2018-10-12T20:56:18.899Z,34.20
2018-10-12T20:58:47.143Z,33.43
2018-10-12T21:01:15.538Z,29.73
2018-10-12T21:03:44.123Z,43.70
2018-10-12T21:06:12.371Z,36.63
2018-10-12T21:08:40.756Z,29.93
2018-10-12T21:11:38.069Z,34.43
2018-10-12T21:14:06.839Z,28.57
2018-10-12T21:22:35.335Z,29.30
2018-10-12T21:25:17.041Z,30.73
2018-10-12T21:28:02.248Z,33.57
2018-10-12T21:30:35.641Z,27.87
2018-10-12T21:33:11.855Z,29.60
2018-10-12T21:35:41.471Z,29.83
2018-10-12T21:38:10.817Z,28.20
2018-10-12T21:40:40.351Z,28.23
2018-10-12T21:43:10.412Z,27.03
2018-10-12T21:45:40.253Z,31.33
2018-10-12T21:48:09.083Z,31.20
2018-10-12T21:50:38.252Z,31.70
2018-10-12T21:53:06.903Z,31.53
2018-10-12T21:55:35.931Z,35.60
2018-10-12T21:58:05.886Z,30.00
2018-10-12T22:00:34.601Z,30.03
2018-10-12T22:03:02.984Z,36.60
2018-10-12T22:05:31.179Z,35.13
2018-10-12T22:07:59.434Z,35.90
2018-10-12T22:10:27.666Z,29.07
2018-10-12T22:12:55.906Z,47.40
2018-10-12T22:15:24.183Z,52.63
2018-10-12T22:17:52.660Z,38.83
2018-10-12T22:20:20.908Z,39.70
2018-10-12T22:22:49.119Z,33.63
2018-10-12T22:25:17.351Z,29.83
2018-10-12T22:27:45.669Z,32.50
2018-10-12T22:30:13.858Z,40.53
2018-10-12T22:32:42.109Z,33.30
2018-10-12T22:35:10.389Z,30.20
2018-10-12T22:37:38.667Z,40.00
2018-10-12T22:40:06.873Z,28.90
2018-10-12T22:42:35.180Z,33.37
2018-10-12T22:45:03.385Z,35.13
2018-10-12T22:47:31.659Z,31.70
2018-10-12T22:49:59.835Z,30.20
2018-10-12T22:52:28.074Z,36.40
2018-10-12T22:54:56.282Z,37.30
2018-10-12T22:57:24.595Z,30.27
2018-10-12T22:59:52.844Z,32.23
2018-10-12T23:02:21.054Z,43.20
2018-10-12T23:04:49.261Z,36.50
2018-10-12T23:07:17.582Z,33.30
2018-10-12T23:09:45.767Z,35.13
2018-10-12T23:12:13.973Z,32.67
2018-10-12T23:14:42.186Z,40.40
2018-10-12T23:17:10.430Z,33.73
2018-10-12T23:19:38.626Z,39.57
2018-10-12T23:22:07.506Z,35.67
2018-10-12T23:24:35.904Z,39.83
2018-10-12T23:27:04.080Z,35.80
2018-10-12T23:29:32.300Z,35.60
2018-10-12T23:32:00.507Z,35.30
2018-10-12T23:34:28.808Z,47.07
2018-10-12T23:36:56.998Z,38.37
2018-10-12T23:39:25.248Z,41.70
2018-10-12T23:41:53.564Z,42.10
2018-10-12T23:44:21.781Z,38.60
2018-10-12T23:46:49.976Z,39.80
2018-10-12T23:49:18.209Z,37.13
2018-10-12T23:51:46.418Z,34.77
2018-10-12T23:54:14.628Z,38.80
2018-10-12T23:56:42.895Z,37.23
2018-10-12T23:59:11.122Z,38.43
